sensor_id;sensor_type;location;lat;lon;timestamp;temperature;humidity
22337;DHT22;14992;50.844;4.418;2023-04-25T00:00:33;10.50;99.90
22337;DHT22;14992;50.844;4.418;2023-04-25T00:03:02;10.20;99.90
22337;DHT22;14992;50.844;4.418;2023-04-25T00:05:34;10.00;99.90
22337;DHT22;14992;50.844;4.418;2023-04-25T00:08:04;10.10;99.90
22337;DHT22;14992;50.844;4.418;2023-04-25T00:10:33;10.30;99.90
22337;DHT22;14992;50.844;4.418;2023-04-25T00:13:02;10.50;99.90
22337;DHT22;14992;50.844;4.418;2023-04-25T00:15:32;10.70;99.90
22337;DHT22;14992;50.844;4.418;2023-04-25T00:18:02;10.70;99.90
22337;DHT22;14992;50.844;4.418;2023-04-25T00:20:31;10.90;99.90
22337;DHT22;14992;50.844;4.418;2023-04-25T00:23:02;10.60;99.90
22337;DHT22;14992;50.844;4.418;2023-04-25T00:25:31;10.60;99.90
22337;DHT22;14992;50.844;4.418;2023-04-25T00:28:01;10.70;99.90
22337;DHT22;14992;50.844;4.418;2023-04-25T00:30:30;10.80;99.90
22337;DHT22;14992;50.844;4.418;2023-04-25T00:32:59;10.80;99.90
22337;DHT22;14992;50.844;4.418;2023-04-25T00:35:29;10.90;99.90
22337;DHT22;14992;50.844;4.418;2023-04-25T00:37:57;10.90;99.90
22337;DHT22;14992;50.844;4.418;2023-04-25T00:40:29;10.50;99.90
22337;DHT22;14992;50.844;4.418;2023-04-25T00:42:59;10.10;99.90
22337;DHT22;14992;50.844;4.418;2023-04-25T00:45:28;9.80;99.90
22337;DHT22;14992;50.844;4.418;2023-04-25T00:47:58;10.00;99.90
22337;DHT22;14992;50.844;4.418;2023-04-25T00:50:27;9.80;99.90
22337;DHT22;14992;50.844;4.418;2023-04-25T00:52:56;9.90;99.90
22337;DHT22;14992;50.844;4.418;2023-04-25T00:55:26;10.00;99.90
22337;DHT22;14992;50.844;4.418;2023-04-25T00:57:58;9.90;99.90
22337;DHT22;14992;50.844;4.418;2023-04-25T01:00:30;9.70;99.90
22337;DHT22;14992;50.844;4.418;2023-04-25T01:03:01;9.90;99.90
22337;DHT22;14992;50.844;4.418;2023-04-25T01:05:32;10.10;99.90
22337;DHT22;14992;50.844;4.418;2023-04-25T01:08:02;10.10;99.90
22337;DHT22;14992;50.844;4.418;2023-04-25T01:10:32;10.10;99.90
22337;DHT22;14992;50.844;4.418;2023-04-25T01:13:03;10.10;99.90
22337;DHT22;14992;50.844;4.418;2023-04-25T01:15:32;10.30;99.90
22337;DHT22;14992;50.844;4.418;2023-04-25T01:18:06;10.40;99.90
22337;DHT22;14992;50.844;4.418;2023-04-25T01:20:36;10.50;99.90
22337;DHT22;14992;50.844;4.418;2023-04-25T01:23:07;10.50;99.90
22337;DHT22;14992;50.844;4.418;2023-04-25T01:25:38;10.60;99.90
22337;DHT22;14992;50.844;4.418;2023-04-25T01:28:07;10.70;99.90
22337;DHT22;14992;50.844;4.418;2023-04-25T01:30:36;10.80;99.90
22337;DHT22;14992;50.844;4.418;2023-04-25T01:33:08;10.80;99.90
22337;DHT22;14992;50.844;4.418;2023-04-25T01:35:38;10.80;99.90
22337;DHT22;14992;50.844;4.418;2023-04-25T01:38:11;10.70;99.90
22337;DHT22;14992;50.844;4.418;2023-04-25T01:40:41;10.70;99.90
22337;DHT22;14992;50.844;4.418;2023-04-25T01:43:10;10.40;99.90
22337;DHT22;14992;50.844;4.418;2023-04-25T01:45:42;10.30;99.90
22337;DHT22;14992;50.844;4.418;2023-04-25T01:48:13;10.20;99.90
22337;DHT22;14992;50.844;4.418;2023-04-25T01:50:44;10.00;99.90
22337;DHT22;14992;50.844;4.418;2023-04-25T01:53:18;9.90;99.90
22337;DHT22;14992;50.844;4.418;2023-04-25T01:55:51;9.70;99.90
22337;DHT22;14992;50.844;4.418;2023-04-25T01:58:24;9.60;99.90
22337;DHT22;14992;50.844;4.418;2023-04-25T02:01:16;9.60;99.90
22337;DHT22;14992;50.844;4.418;2023-04-25T02:03:55;9.80;99.90
22337;DHT22;14992;50.844;4.418;2023-04-25T02:06:30;9.80;99.90
22337;DHT22;14992;50.844;4.418;2023-04-25T02:09:01;9.90;99.90
22337;DHT22;14992;50.844;4.418;2023-04-25T02:11:32;9.80;99.90
22337;DHT22;14992;50.844;4.418;2023-04-25T02:14:21;9.60;99.90
22337;DHT22;14992;50.844;4.418;2023-04-25T02:17:04;9.60;99.90
22337;DHT22;14992;50.844;4.418;2023-04-25T02:19:34;9.40;99.90
22337;DHT22;14992;50.844;4.418;2023-04-25T02:22:03;9.40;99.90
22337;DHT22;14992;50.844;4.418;2023-04-25T02:24:33;9.40;99.90
22337;DHT22;14992;50.844;4.418;2023-04-25T02:27:03;9.30;99.90
22337;DHT22;14992;50.844;4.418;2023-04-25T02:29:35;9.30;99.90
22337;DHT22;14992;50.844;4.418;2023-04-25T02:32:04;9.40;99.90
22337;DHT22;14992;50.844;4.418;2023-04-25T02:34:34;9.50;99.90
22337;DHT22;14992;50.844;4.418;2023-04-25T02:37:04;9.50;99.90
22337;DHT22;14992;50.844;4.418;2023-04-25T02:39:35;9.70;99.90
22337;DHT22;14992;50.844;4.418;2023-04-25T02:42:04;9.80;99.90
22337;DHT22;14992;50.844;4.418;2023-04-25T02:44:33;9.80;99.90
22337;DHT22;14992;50.844;4.418;2023-04-25T02:47:05;9.90;99.90
22337;DHT22;14992;50.844;4.418;2023-04-25T02:49:34;10.00;99.90
22337;DHT22;14992;50.844;4.418;2023-04-25T02:52:03;9.90;99.90
22337;DHT22;14992;50.844;4.418;2023-04-25T02:54:34;9.80;99.90
22337;DHT22;14992;50.844;4.418;2023-04-25T02:57:04;9.90;99.90
22337;DHT22;14992;50.844;4.418;2023-04-25T02:59:36;10.00;99.90
22337;DHT22;14992;50.844;4.418;2023-04-25T03:02:06;10.00;99.90
22337;DHT22;14992;50.844;4.418;2023-04-25T03:04:35;10.10;99.90
22337;DHT22;14992;50.844;4.418;2023-04-25T03:07:04;10.10;99.90
22337;DHT22;14992;50.844;4.418;2023-04-25T03:09:35;10.10;99.90
22337;DHT22;14992;50.844;4.418;2023-04-25T03:12:04;10.00;99.90
22337;DHT22;14992;50.844;4.418;2023-04-25T03:14:34;10.00;99.90
22337;DHT22;14992;50.844;4.418;2023-04-25T03:17:04;10.10;99.90
22337;DHT22;14992;50.844;4.418;2023-04-25T03:19:36;9.80;99.90
22337;DHT22;14992;50.844;4.418;2023-04-25T03:22:05;9.80;99.90
22337;DHT22;14992;50.844;4.418;2023-04-25T03:24:37;9.90;99.90
22337;DHT22;14992;50.844;4.418;2023-04-25T03:27:07;9.80;99.90
22337;DHT22;14992;50.844;4.418;2023-04-25T03:29:36;9.80;99.90
22337;DHT22;14992;50.844;4.418;2023-04-25T03:32:06;9.90;99.90
22337;DHT22;14992;50.844;4.418;2023-04-25T03:34:35;10.00;99.90
22337;DHT22;14992;50.844;4.418;2023-04-25T03:37:05;9.80;99.90
22337;DHT22;14992;50.844;4.418;2023-04-25T03:39:39;9.40;99.90
22337;DHT22;14992;50.844;4.418;2023-04-25T03:42:09;9.10;99.90
22337;DHT22;14992;50.844;4.418;2023-04-25T03:44:38;9.30;99.90
22337;DHT22;14992;50.844;4.418;2023-04-25T03:47:07;9.30;99.90
22337;DHT22;14992;50.844;4.418;2023-04-25T03:49:37;9.10;99.90
22337;DHT22;14992;50.844;4.418;2023-04-25T03:52:07;9.30;99.90
22337;DHT22;14992;50.844;4.418;2023-04-25T03:54:41;8.90;99.90
22337;DHT22;14992;50.844;4.418;2023-04-25T03:57:14;8.70;99.90
22337;DHT22;14992;50.844;4.418;2023-04-25T03:59:45;8.60;99.90
22337;DHT22;14992;50.844;4.418;2023-04-25T04:02:15;8.60;99.90
22337;DHT22;14992;50.844;4.418;2023-04-25T04:04:45;8.60;99.90
22337;DHT22;14992;50.844;4.418;2023-04-25T04:07:17;8.50;99.90
22337;DHT22;14992;50.844;4.418;2023-04-25T04:09:51;8.50;99.90
22337;DHT22;14992;50.844;4.418;2023-04-25T04:12:27;8.50;99.90
22337;DHT22;14992;50.844;4.418;2023-04-25T04:14:56;8.50;99.90
22337;DHT22;14992;50.844;4.418;2023-04-25T04:17:25;8.60;99.90
22337;DHT22;14992;50.844;4.418;2023-04-25T04:19:55;8.60;99.90
22337;DHT22;14992;50.844;4.418;2023-04-25T04:22:24;8.70;99.90
22337;DHT22;14992;50.844;4.418;2023-04-25T04:24:58;8.80;99.90
22337;DHT22;14992;50.844;4.418;2023-04-25T04:27:46;9.00;99.90
22337;DHT22;14992;50.844;4.418;2023-04-25T04:30:35;9.20;99.90
22337;DHT22;14992;50.844;4.418;2023-04-25T04:33:07;9.30;99.90
22337;DHT22;14992;50.844;4.418;2023-04-25T04:35:37;9.60;99.90
22337;DHT22;14992;50.844;4.418;2023-04-25T04:38:10;9.60;99.90
22337;DHT22;14992;50.844;4.418;2023-04-25T04:40:41;9.50;99.90
22337;DHT22;14992;50.844;4.418;2023-04-25T04:43:16;9.40;99.90
22337;DHT22;14992;50.844;4.418;2023-04-25T04:46:06;9.20;99.90
22337;DHT22;14992;50.844;4.418;2023-04-25T04:48:54;9.30;99.90
22337;DHT22;14992;50.844;4.418;2023-04-25T04:51:50;9.30;99.90
22337;DHT22;14992;50.844;4.418;2023-04-25T04:54:46;9.40;99.90
22337;DHT22;14992;50.844;4.418;2023-04-25T04:57:36;9.30;99.90
22337;DHT22;14992;50.844;4.418;2023-04-25T05:00:45;9.40;99.90
22337;DHT22;14992;50.844;4.418;2023-04-25T05:03:53;9.50;99.90
22337;DHT22;14992;50.844;4.418;2023-04-25T05:06:43;9.60;99.90
22337;DHT22;14992;50.844;4.418;2023-04-25T05:09:25;9.50;99.90
22337;DHT22;14992;50.844;4.418;2023-04-25T05:12:07;9.30;99.90
22337;DHT22;14992;50.844;4.418;2023-04-25T05:14:38;9.30;99.90
22337;DHT22;14992;50.844;4.418;2023-04-25T05:17:43;9.10;99.90
22337;DHT22;14992;50.844;4.418;2023-04-25T05:20:24;9.00;99.90
22337;DHT22;14992;50.844;4.418;2023-04-25T05:22:59;8.90;99.90
22337;DHT22;14992;50.844;4.418;2023-04-25T05:25:58;8.70;99.90
22337;DHT22;14992;50.844;4.418;2023-04-25T05:28:50;8.60;99.90
22337;DHT22;14992;50.844;4.418;2023-04-25T05:31:36;8.30;99.90
22337;DHT22;14992;50.844;4.418;2023-04-25T05:34:10;8.20;99.90
22337;DHT22;14992;50.844;4.418;2023-04-25T05:36:59;8.30;99.90
22337;DHT22;14992;50.844;4.418;2023-04-25T05:39:29;8.50;99.90
22337;DHT22;14992;50.844;4.418;2023-04-25T05:42:27;8.60;99.90
22337;DHT22;14992;50.844;4.418;2023-04-25T05:45:22;9.00;99.90
22337;DHT22;14992;50.844;4.418;2023-04-25T05:47:59;9.20;99.90
22337;DHT22;14992;50.844;4.418;2023-04-25T05:50:42;9.30;99.90
22337;DHT22;14992;50.844;4.418;2023-04-25T05:53:30;9.30;99.90
22337;DHT22;14992;50.844;4.418;2023-04-25T05:56:01;9.50;99.90
22337;DHT22;14992;50.844;4.418;2023-04-25T05:58:31;9.50;99.90
22337;DHT22;14992;50.844;4.418;2023-04-25T06:01:00;9.70;99.90
22337;DHT22;14992;50.844;4.418;2023-04-25T06:03:31;9.80;99.90
22337;DHT22;14992;50.844;4.418;2023-04-25T06:06:00;9.90;99.90
22337;DHT22;14992;50.844;4.418;2023-04-25T06:08:32;10.00;99.90
22337;DHT22;14992;50.844;4.418;2023-04-25T06:11:01;9.80;99.90
22337;DHT22;14992;50.844;4.418;2023-04-25T06:13:30;9.60;99.90
22337;DHT22;14992;50.844;4.418;2023-04-25T06:15:59;9.70;99.90
22337;DHT22;14992;50.844;4.418;2023-04-25T06:18:28;9.70;99.90
22337;DHT22;14992;50.844;4.418;2023-04-25T06:20:58;9.60;99.90
22337;DHT22;14992;50.844;4.418;2023-04-25T06:23:28;9.70;99.90
22337;DHT22;14992;50.844;4.418;2023-04-25T06:26:05;9.70;99.90
22337;DHT22;14992;50.844;4.418;2023-04-25T06:28:37;9.60;99.90
22337;DHT22;14992;50.844;4.418;2023-04-25T06:31:06;9.80;99.90
22337;DHT22;14992;50.844;4.418;2023-04-25T06:33:35;9.90;99.90
22337;DHT22;14992;50.844;4.418;2023-04-25T06:36:07;9.90;99.90
22337;DHT22;14992;50.844;4.418;2023-04-25T06:38:37;9.90;99.90
22337;DHT22;14992;50.844;4.418;2023-04-25T06:41:06;10.00;99.90
22337;DHT22;14992;50.844;4.418;2023-04-25T06:43:36;10.20;99.90
22337;DHT22;14992;50.844;4.418;2023-04-25T06:46:24;10.30;99.90
22337;DHT22;14992;50.844;4.418;2023-04-25T06:48:53;10.10;99.90
22337;DHT22;14992;50.844;4.418;2023-04-25T06:51:24;10.00;99.90
22337;DHT22;14992;50.844;4.418;2023-04-25T06:53:56;9.80;99.90
22337;DHT22;14992;50.844;4.418;2023-04-25T06:56:39;9.90;99.90
22337;DHT22;14992;50.844;4.418;2023-04-25T06:59:13;9.90;99.90
22337;DHT22;14992;50.844;4.418;2023-04-25T07:01:45;9.50;99.90
22337;DHT22;14992;50.844;4.418;2023-04-25T07:04:17;9.70;99.90
22337;DHT22;14992;50.844;4.418;2023-04-25T07:06:55;9.90;99.90
22337;DHT22;14992;50.844;4.418;2023-04-25T07:09:34;10.20;99.90
22337;DHT22;14992;50.844;4.418;2023-04-25T07:12:05;10.20;99.90
22337;DHT22;14992;50.844;4.418;2023-04-25T07:14:35;9.90;99.90
22337;DHT22;14992;50.844;4.418;2023-04-25T07:17:04;10.00;99.90
22337;DHT22;14992;50.844;4.418;2023-04-25T07:19:35;9.90;99.90
22337;DHT22;14992;50.844;4.418;2023-04-25T07:22:07;9.80;99.90
22337;DHT22;14992;50.844;4.418;2023-04-25T07:24:39;9.60;99.90
22337;DHT22;14992;50.844;4.418;2023-04-25T07:27:11;9.70;99.90
22337;DHT22;14992;50.844;4.418;2023-04-25T07:29:52;10.20;99.90
22337;DHT22;14992;50.844;4.418;2023-04-25T07:32:23;10.00;99.90
22337;DHT22;14992;50.844;4.418;2023-04-25T07:34:52;10.30;99.90
22337;DHT22;14992;50.844;4.418;2023-04-25T07:37:23;10.50;99.90
22337;DHT22;14992;50.844;4.418;2023-04-25T07:40:03;10.60;99.90
22337;DHT22;14992;50.844;4.418;2023-04-25T07:42:33;10.20;99.90
22337;DHT22;14992;50.844;4.418;2023-04-25T07:45:04;10.20;99.90
22337;DHT22;14992;50.844;4.418;2023-04-25T07:47:34;10.40;99.90
22337;DHT22;14992;50.844;4.418;2023-04-25T07:50:05;10.50;99.90
22337;DHT22;14992;50.844;4.418;2023-04-25T07:52:35;10.40;99.90
22337;DHT22;14992;50.844;4.418;2023-04-25T07:55:17;10.50;99.90
22337;DHT22;14992;50.844;4.418;2023-04-25T07:58:02;10.70;99.90
22337;DHT22;14992;50.844;4.418;2023-04-25T08:00:32;11.00;99.90
22337;DHT22;14992;50.844;4.418;2023-04-25T08:03:21;11.20;99.90
22337;DHT22;14992;50.844;4.418;2023-04-25T08:05:51;11.30;99.90
22337;DHT22;14992;50.844;4.418;2023-04-25T08:08:23;11.20;99.90
22337;DHT22;14992;50.844;4.418;2023-04-25T08:10:53;11.40;99.90
22337;DHT22;14992;50.844;4.418;2023-04-25T08:13:23;11.70;99.90
22337;DHT22;14992;50.844;4.418;2023-04-25T08:15:53;11.60;99.90
22337;DHT22;14992;50.844;4.418;2023-04-25T08:18:22;11.60;99.90
22337;DHT22;14992;50.844;4.418;2023-04-25T08:20:53;11.80;99.90
22337;DHT22;14992;50.844;4.418;2023-04-25T08:23:24;11.70;99.90
22337;DHT22;14992;50.844;4.418;2023-04-25T08:26:02;11.60;99.90
22337;DHT22;14992;50.844;4.418;2023-04-25T08:28:35;11.60;99.90
22337;DHT22;14992;50.844;4.418;2023-04-25T08:31:04;11.70;99.90
22337;DHT22;14992;50.844;4.418;2023-04-25T08:33:44;11.70;99.90
22337;DHT22;14992;50.844;4.418;2023-04-25T08:36:42;11.20;99.90
22337;DHT22;14992;50.844;4.418;2023-04-25T08:39:38;11.20;99.90
22337;DHT22;14992;50.844;4.418;2023-04-25T08:42:47;11.20;99.90
22337;DHT22;14992;50.844;4.418;2023-04-25T08:45:19;11.30;99.90
22337;DHT22;14992;50.844;4.418;2023-04-25T08:47:52;11.70;99.90
22337;DHT22;14992;50.844;4.418;2023-04-25T08:50:23;12.10;99.90
22337;DHT22;14992;50.844;4.418;2023-04-25T08:52:54;12.50;99.90
22337;DHT22;14992;50.844;4.418;2023-04-25T08:55:28;12.30;99.90
22337;DHT22;14992;50.844;4.418;2023-04-25T08:57:59;12.00;99.90
22337;DHT22;14992;50.844;4.418;2023-04-25T09:00:29;11.80;99.90
22337;DHT22;14992;50.844;4.418;2023-04-25T09:02:59;11.70;99.90
22337;DHT22;14992;50.844;4.418;2023-04-25T09:05:33;11.90;99.90
22337;DHT22;14992;50.844;4.418;2023-04-25T09:08:04;12.10;99.90
22337;DHT22;14992;50.844;4.418;2023-04-25T09:10:37;12.30;99.90
22337;DHT22;14992;50.844;4.418;2023-04-25T09:13:08;12.30;99.90
22337;DHT22;14992;50.844;4.418;2023-04-25T09:16:08;12.30;99.90
22337;DHT22;14992;50.844;4.418;2023-04-25T09:18:58;11.80;99.90
22337;DHT22;14992;50.844;4.418;2023-04-25T09:21:27;11.90;99.90
22337;DHT22;14992;50.844;4.418;2023-04-25T09:23:59;12.00;99.90
22337;DHT22;14992;50.844;4.418;2023-04-25T09:26:32;12.00;99.90
22337;DHT22;14992;50.844;4.418;2023-04-25T09:29:05;12.00;99.90
22337;DHT22;14992;50.844;4.418;2023-04-25T09:31:39;11.40;99.90
22337;DHT22;14992;50.844;4.418;2023-04-25T09:34:10;10.90;99.90
22337;DHT22;14992;50.844;4.418;2023-04-25T09:36:54;10.70;99.90
22337;DHT22;14992;50.844;4.418;2023-04-25T09:39:55;10.90;99.90
22337;DHT22;14992;50.844;4.418;2023-04-25T09:42:27;11.20;99.90
22337;DHT22;14992;50.844;4.418;2023-04-25T09:45:02;11.50;99.90
22337;DHT22;14992;50.844;4.418;2023-04-25T09:47:37;11.40;99.90
22337;DHT22;14992;50.844;4.418;2023-04-25T09:50:14;11.30;99.90
22337;DHT22;14992;50.844;4.418;2023-04-25T09:53:03;11.20;99.90
22337;DHT22;14992;50.844;4.418;2023-04-25T09:56:00;11.20;99.90
22337;DHT22;14992;50.844;4.418;2023-04-25T09:58:33;11.40;99.90
22337;DHT22;14992;50.844;4.418;2023-04-25T10:01:05;11.70;99.90
22337;DHT22;14992;50.844;4.418;2023-04-25T10:03:47;12.10;99.90
22337;DHT22;14992;50.844;4.418;2023-04-25T10:06:37;12.50;99.90
22337;DHT22;14992;50.844;4.418;2023-04-25T10:09:08;12.10;99.90
22337;DHT22;14992;50.844;4.418;2023-04-25T10:11:38;11.40;99.90
22337;DHT22;14992;50.844;4.418;2023-04-25T10:14:09;11.10;99.90
22337;DHT22;14992;50.844;4.418;2023-04-25T10:16:40;11.20;99.90
22337;DHT22;14992;50.844;4.418;2023-04-25T10:19:10;11.60;99.90
22337;DHT22;14992;50.844;4.418;2023-04-25T10:21:46;11.90;99.90
22337;DHT22;14992;50.844;4.418;2023-04-25T10:24:17;12.20;99.90
22337;DHT22;14992;50.844;4.418;2023-04-25T10:26:47;12.50;99.90
22337;DHT22;14992;50.844;4.418;2023-04-25T10:29:23;12.40;99.90
22337;DHT22;14992;50.844;4.418;2023-04-25T10:31:53;12.60;99.90
22337;DHT22;14992;50.844;4.418;2023-04-25T10:34:39;12.70;99.90
22337;DHT22;14992;50.844;4.418;2023-04-25T10:37:11;12.90;99.40
22337;DHT22;14992;50.844;4.418;2023-04-25T10:39:41;12.80;99.90
22337;DHT22;14992;50.844;4.418;2023-04-25T10:42:11;13.10;99.90
22337;DHT22;14992;50.844;4.418;2023-04-25T10:45:01;13.60;99.70
22337;DHT22;14992;50.844;4.418;2023-04-25T10:47:35;13.30;98.10
22337;DHT22;14992;50.844;4.418;2023-04-25T10:50:06;13.40;96.50
22337;DHT22;14992;50.844;4.418;2023-04-25T10:52:38;13.60;94.60
22337;DHT22;14992;50.844;4.418;2023-04-25T10:55:08;13.60;93.90
22337;DHT22;14992;50.844;4.418;2023-04-25T10:57:40;13.50;95.20
22337;DHT22;14992;50.844;4.418;2023-04-25T11:00:15;13.20;95.40
22337;DHT22;14992;50.844;4.418;2023-04-25T11:02:47;13.40;95.80
22337;DHT22;14992;50.844;4.418;2023-04-25T11:05:23;13.30;96.60
22337;DHT22;14992;50.844;4.418;2023-04-25T11:07:56;13.70;96.50
22337;DHT22;14992;50.844;4.418;2023-04-25T11:10:35;13.60;96.30
22337;DHT22;14992;50.844;4.418;2023-04-25T11:13:06;13.10;98.30
22337;DHT22;14992;50.844;4.418;2023-04-25T11:15:37;12.60;99.90
22337;DHT22;14992;50.844;4.418;2023-04-25T11:18:06;12.60;99.90
22337;DHT22;14992;50.844;4.418;2023-04-25T11:20:35;12.10;99.90
22337;DHT22;14992;50.844;4.418;2023-04-25T11:23:04;11.70;99.90
22337;DHT22;14992;50.844;4.418;2023-04-25T11:25:34;11.70;99.90
22337;DHT22;14992;50.844;4.418;2023-04-25T11:28:05;11.80;99.90
22337;DHT22;14992;50.844;4.418;2023-04-25T11:30:34;11.90;99.90
22337;DHT22;14992;50.844;4.418;2023-04-25T11:33:05;11.80;99.90
22337;DHT22;14992;50.844;4.418;2023-04-25T11:35:35;12.10;99.90
22337;DHT22;14992;50.844;4.418;2023-04-25T11:38:04;12.50;99.90
22337;DHT22;14992;50.844;4.418;2023-04-25T11:40:35;12.80;99.90
22337;DHT22;14992;50.844;4.418;2023-04-25T11:43:04;13.00;99.90
22337;DHT22;14992;50.844;4.418;2023-04-25T11:45:33;12.80;99.90
22337;DHT22;14992;50.844;4.418;2023-04-25T11:48:02;13.00;99.90
22337;DHT22;14992;50.844;4.418;2023-04-25T11:50:33;13.40;99.90
22337;DHT22;14992;50.844;4.418;2023-04-25T11:53:07;13.10;99.90
22337;DHT22;14992;50.844;4.418;2023-04-25T11:55:37;13.10;99.90
22337;DHT22;14992;50.844;4.418;2023-04-25T11:58:08;13.10;99.90
22337;DHT22;14992;50.844;4.418;2023-04-25T12:00:42;13.30;99.90
22337;DHT22;14992;50.844;4.418;2023-04-25T12:03:18;13.50;99.90
22337;DHT22;14992;50.844;4.418;2023-04-25T12:05:50;13.30;99.90
22337;DHT22;14992;50.844;4.418;2023-04-25T12:08:20;13.20;99.90
22337;DHT22;14992;50.844;4.418;2023-04-25T12:10:49;13.50;99.90
22337;DHT22;14992;50.844;4.418;2023-04-25T12:13:21;13.90;97.40
22337;DHT22;14992;50.844;4.418;2023-04-25T12:15:50;14.20;97.70
22337;DHT22;14992;50.844;4.418;2023-04-25T12:18:20;14.40;96.40
22337;DHT22;14992;50.844;4.418;2023-04-25T12:20:52;13.60;98.10
22337;DHT22;14992;50.844;4.418;2023-04-25T12:23:26;13.50;99.90
22337;DHT22;14992;50.844;4.418;2023-04-25T12:25:56;13.10;97.50
22337;DHT22;14992;50.844;4.418;2023-04-25T12:28:25;13.30;97.50
22337;DHT22;14992;50.844;4.418;2023-04-25T12:30:57;13.50;94.50
22337;DHT22;14992;50.844;4.418;2023-04-25T12:33:28;13.60;92.70
22337;DHT22;14992;50.844;4.418;2023-04-25T12:36:01;13.30;94.30
22337;DHT22;14992;50.844;4.418;2023-04-25T12:38:38;13.20;93.50
22337;DHT22;14992;50.844;4.418;2023-04-25T12:41:09;13.20;92.60
22337;DHT22;14992;50.844;4.418;2023-04-25T12:43:38;13.10;91.40
22337;DHT22;14992;50.844;4.418;2023-04-25T12:46:08;13.40;91.10
22337;DHT22;14992;50.844;4.418;2023-04-25T12:48:37;13.60;90.40
22337;DHT22;14992;50.844;4.418;2023-04-25T12:51:08;13.40;90.90
22337;DHT22;14992;50.844;4.418;2023-04-25T12:53:37;13.70;91.80
22337;DHT22;14992;50.844;4.418;2023-04-25T12:56:08;14.00;90.80
22337;DHT22;14992;50.844;4.418;2023-04-25T12:58:37;13.50;91.70
22337;DHT22;14992;50.844;4.418;2023-04-25T13:01:08;13.40;92.70
22337;DHT22;14992;50.844;4.418;2023-04-25T13:03:39;12.80;94.10
22337;DHT22;14992;50.844;4.418;2023-04-25T13:06:10;12.60;99.20
22337;DHT22;14992;50.844;4.418;2023-04-25T13:08:40;12.50;99.90
22337;DHT22;14992;50.844;4.418;2023-04-25T13:11:10;12.60;99.90
22337;DHT22;14992;50.844;4.418;2023-04-25T13:13:39;12.90;99.90
22337;DHT22;14992;50.844;4.418;2023-04-25T13:16:09;12.70;99.90
22337;DHT22;14992;50.844;4.418;2023-04-25T13:18:38;12.80;99.90
22337;DHT22;14992;50.844;4.418;2023-04-25T13:21:10;12.60;99.90
22337;DHT22;14992;50.844;4.418;2023-04-25T13:23:43;12.50;99.90
22337;DHT22;14992;50.844;4.418;2023-04-25T13:26:14;12.40;99.90
22337;DHT22;14992;50.844;4.418;2023-04-25T13:28:43;12.40;99.90
22337;DHT22;14992;50.844;4.418;2023-04-25T13:31:14;12.40;99.90
22337;DHT22;14992;50.844;4.418;2023-04-25T13:33:44;12.40;99.90
22337;DHT22;14992;50.844;4.418;2023-04-25T13:36:14;12.80;99.90
22337;DHT22;14992;50.844;4.418;2023-04-25T13:38:44;12.80;97.20
22337;DHT22;14992;50.844;4.418;2023-04-25T13:41:15;12.90;96.70
22337;DHT22;14992;50.844;4.418;2023-04-25T13:43:47;13.10;95.60
22337;DHT22;14992;50.844;4.418;2023-04-25T13:46:18;13.20;95.30
22337;DHT22;14992;50.844;4.418;2023-04-25T13:49:07;13.40;91.60
22337;DHT22;14992;50.844;4.418;2023-04-25T13:51:41;13.00;87.20
22337;DHT22;14992;50.844;4.418;2023-04-25T13:54:11;12.90;85.40
22337;DHT22;14992;50.844;4.418;2023-04-25T13:56:41;12.60;88.00
22337;DHT22;14992;50.844;4.418;2023-04-25T13:59:11;12.90;91.30
22337;DHT22;14992;50.844;4.418;2023-04-25T14:01:42;13.40;94.90
22337;DHT22;14992;50.844;4.418;2023-04-25T14:04:12;13.30;96.80
22337;DHT22;14992;50.844;4.418;2023-04-25T14:06:42;12.70;98.90
22337;DHT22;14992;50.844;4.418;2023-04-25T14:09:11;12.40;99.90
22337;DHT22;14992;50.844;4.418;2023-04-25T14:11:41;12.50;99.90
22337;DHT22;14992;50.844;4.418;2023-04-25T14:14:13;12.80;99.90
22337;DHT22;14992;50.844;4.418;2023-04-25T14:16:44;12.70;99.90
22337;DHT22;14992;50.844;4.418;2023-04-25T14:19:18;12.60;99.90
22337;DHT22;14992;50.844;4.418;2023-04-25T14:21:50;12.90;99.10
22337;DHT22;14992;50.844;4.418;2023-04-25T14:24:19;12.90;95.10
22337;DHT22;14992;50.844;4.418;2023-04-25T14:26:49;12.40;95.00
22337;DHT22;14992;50.844;4.418;2023-04-25T14:29:18;12.30;95.20
22337;DHT22;14992;50.844;4.418;2023-04-25T14:31:47;12.00;96.20
22337;DHT22;14992;50.844;4.418;2023-04-25T14:34:19;12.20;96.10
22337;DHT22;14992;50.844;4.418;2023-04-25T14:36:49;12.30;95.10
22337;DHT22;14992;50.844;4.418;2023-04-25T14:39:18;12.50;95.90
22337;DHT22;14992;50.844;4.418;2023-04-25T14:41:48;12.60;93.40
22337;DHT22;14992;50.844;4.418;2023-04-25T14:44:17;12.80;93.20
22337;DHT22;14992;50.844;4.418;2023-04-25T14:46:46;13.00;92.90
22337;DHT22;14992;50.844;4.418;2023-04-25T14:49:15;13.20;93.50
22337;DHT22;14992;50.844;4.418;2023-04-25T14:51:44;13.10;93.50
22337;DHT22;14992;50.844;4.418;2023-04-25T14:54:15;12.90;94.70
22337;DHT22;14992;50.844;4.418;2023-04-25T14:56:44;13.10;95.40
22337;DHT22;14992;50.844;4.418;2023-04-25T14:59:13;13.20;94.10
22337;DHT22;14992;50.844;4.418;2023-04-25T15:01:42;12.90;95.10
22337;DHT22;14992;50.844;4.418;2023-04-25T15:04:11;12.70;95.60
22337;DHT22;14992;50.844;4.418;2023-04-25T15:06:40;12.70;95.70
22337;DHT22;14992;50.844;4.418;2023-04-25T15:09:10;13.00;96.10
22337;DHT22;14992;50.844;4.418;2023-04-25T15:11:40;13.20;96.00
22337;DHT22;14992;50.844;4.418;2023-04-25T15:14:11;12.90;91.80
22337;DHT22;14992;50.844;4.418;2023-04-25T15:16:40;13.10;91.10
22337;DHT22;14992;50.844;4.418;2023-04-25T15:19:09;13.30;90.80
22337;DHT22;14992;50.844;4.418;2023-04-25T15:21:39;13.20;90.20
22337;DHT22;14992;50.844;4.418;2023-04-25T15:24:08;13.20;90.80
22337;DHT22;14992;50.844;4.418;2023-04-25T15:26:44;13.20;92.00
22337;DHT22;14992;50.844;4.418;2023-04-25T15:29:14;13.00;93.30
22337;DHT22;14992;50.844;4.418;2023-04-25T15:31:43;13.10;91.50
22337;DHT22;14992;50.844;4.418;2023-04-25T15:34:12;13.00;91.50
22337;DHT22;14992;50.844;4.418;2023-04-25T15:36:41;12.80;92.30
22337;DHT22;14992;50.844;4.418;2023-04-25T15:39:10;12.90;92.30
22337;DHT22;14992;50.844;4.418;2023-04-25T15:41:39;13.30;92.00
22337;DHT22;14992;50.844;4.418;2023-04-25T15:44:09;13.30;88.80
22337;DHT22;14992;50.844;4.418;2023-04-25T15:46:38;13.00;88.80
22337;DHT22;14992;50.844;4.418;2023-04-25T15:49:07;13.30;88.20
22337;DHT22;14992;50.844;4.418;2023-04-25T15:51:36;13.60;90.30
22337;DHT22;14992;50.844;4.418;2023-04-25T15:54:05;13.80;90.40
22337;DHT22;14992;50.844;4.418;2023-04-25T15:56:34;13.70;90.60
22337;DHT22;14992;50.844;4.418;2023-04-25T15:59:03;13.60;90.30
22337;DHT22;14992;50.844;4.418;2023-04-25T16:01:35;13.60;90.20
22337;DHT22;14992;50.844;4.418;2023-04-25T16:04:05;13.40;90.50
22337;DHT22;14992;50.844;4.418;2023-04-25T16:06:34;13.20;90.50
22337;DHT22;14992;50.844;4.418;2023-04-25T16:09:03;13.10;91.10
22337;DHT22;14992;50.844;4.418;2023-04-25T16:11:33;13.10;91.50